sensor_id;sensor_type;location;lat;lon;timestamp;temperature;humidity
65239;SHT30;51827;51.186;6.926;2023-06-22T00:00:36;24.41;58.96
65239;SHT30;51827;51.186;6.926;2023-06-22T00:01:36;24.42;58.98
65239;SHT30;51827;51.186;6.926;2023-06-22T00:02:36;24.42;58.92
65239;SHT30;51827;51.186;6.926;2023-06-22T00:03:36;24.42;58.92
65239;SHT30;51827;51.186;6.926;2023-06-22T00:04:36;24.41;58.93
65239;SHT30;51827;51.186;6.926;2023-06-22T00:05:37;24.42;58.98
65239;SHT30;51827;51.186;6.926;2023-06-22T00:06:37;24.41;58.90
65239;SHT30;51827;51.186;6.926;2023-06-22T00:07:37;24.42;58.96
65239;SHT30;51827;51.186;6.926;2023-06-22T00:08:37;24.39;58.94
65239;SHT30;51827;51.186;6.926;2023-06-22T00:09:38;24.41;58.92
65239;SHT30;51827;51.186;6.926;2023-06-22T00:10:38;24.41;58.94
65239;SHT30;51827;51.186;6.926;2023-06-22T00:11:39;24.44;58.91
65239;SHT30;51827;51.186;6.926;2023-06-22T00:12:39;24.41;58.96
65239;SHT30;51827;51.186;6.926;2023-06-22T00:13:39;24.44;58.93
65239;SHT30;51827;51.186;6.926;2023-06-22T00:14:40;24.41;58.95
65239;SHT30;51827;51.186;6.926;2023-06-22T00:15:40;24.42;58.92
65239;SHT30;51827;51.186;6.926;2023-06-22T00:16:41;24.41;58.91
65239;SHT30;51827;51.186;6.926;2023-06-22T00:17:41;24.41;58.88
65239;SHT30;51827;51.186;6.926;2023-06-22T00:18:41;24.41;58.93
65239;SHT30;51827;51.186;6.926;2023-06-22T00:19:42;24.42;58.88
65239;SHT30;51827;51.186;6.926;2023-06-22T00:20:42;24.42;58.91
65239;SHT30;51827;51.186;6.926;2023-06-22T00:21:42;24.41;58.91
65239;SHT30;51827;51.186;6.926;2023-06-22T00:22:43;24.41;58.92
65239;SHT30;51827;51.186;6.926;2023-06-22T00:23:43;24.41;58.92
65239;SHT30;51827;51.186;6.926;2023-06-22T00:24:43;24.39;58.91
65239;SHT30;51827;51.186;6.926;2023-06-22T00:25:43;24.39;58.89
65239;SHT30;51827;51.186;6.926;2023-06-22T00:26:43;24.39;58.93
65239;SHT30;51827;51.186;6.926;2023-06-22T00:27:44;24.38;58.93
65239;SHT30;51827;51.186;6.926;2023-06-22T00:28:44;24.39;58.93
65239;SHT30;51827;51.186;6.926;2023-06-22T00:29:44;24.38;58.88
65239;SHT30;51827;51.186;6.926;2023-06-22T00:30:48;24.38;58.89
65239;SHT30;51827;51.186;6.926;2023-06-22T00:31:48;24.39;58.96
65239;SHT30;51827;51.186;6.926;2023-06-22T00:32:49;24.39;58.90
65239;SHT30;51827;51.186;6.926;2023-06-22T00:33:49;24.39;58.93
65239;SHT30;51827;51.186;6.926;2023-06-22T00:34:49;24.41;58.94
65239;SHT30;51827;51.186;6.926;2023-06-22T00:35:49;24.41;58.93
65239;SHT30;51827;51.186;6.926;2023-06-22T00:36:50;24.38;58.94
65239;SHT30;51827;51.186;6.926;2023-06-22T00:37:50;24.38;58.92
65239;SHT30;51827;51.186;6.926;2023-06-22T00:38:50;24.41;58.90
65239;SHT30;51827;51.186;6.926;2023-06-22T00:39:53;24.41;58.93
65239;SHT30;51827;51.186;6.926;2023-06-22T00:40:54;24.39;58.93
65239;SHT30;51827;51.186;6.926;2023-06-22T00:41:54;24.41;58.93
65239;SHT30;51827;51.186;6.926;2023-06-22T00:42:55;24.39;58.88
65239;SHT30;51827;51.186;6.926;2023-06-22T00:43:55;24.37;58.92
65239;SHT30;51827;51.186;6.926;2023-06-22T00:44:55;24.42;58.93
65239;SHT30;51827;51.186;6.926;2023-06-22T00:45:56;24.39;58.94
65239;SHT30;51827;51.186;6.926;2023-06-22T00:46:56;24.37;58.86
65239;SHT30;51827;51.186;6.926;2023-06-22T00:47:57;24.39;58.90
65239;SHT30;51827;51.186;6.926;2023-06-22T00:48:58;24.38;58.86
65239;SHT30;51827;51.186;6.926;2023-06-22T00:49:58;24.39;58.86
65239;SHT30;51827;51.186;6.926;2023-06-22T00:50:59;24.41;58.86
65239;SHT30;51827;51.186;6.926;2023-06-22T00:51:59;24.37;58.91
65239;SHT30;51827;51.186;6.926;2023-06-22T00:53:03;24.39;58.89
65239;SHT30;51827;51.186;6.926;2023-06-22T00:54:04;24.38;58.88
65239;SHT30;51827;51.186;6.926;2023-06-22T00:55:04;24.39;58.86
65239;SHT30;51827;51.186;6.926;2023-06-22T00:56:05;24.38;58.88
65239;SHT30;51827;51.186;6.926;2023-06-22T00:57:05;24.39;58.87
65239;SHT30;51827;51.186;6.926;2023-06-22T00:58:06;24.41;58.87
65239;SHT30;51827;51.186;6.926;2023-06-22T00:59:06;24.38;58.87
65239;SHT30;51827;51.186;6.926;2023-06-22T01:00:07;24.39;58.86
65239;SHT30;51827;51.186;6.926;2023-06-22T01:01:08;24.38;58.86
65239;SHT30;51827;51.186;6.926;2023-06-22T01:02:08;24.37;58.87
65239;SHT30;51827;51.186;6.926;2023-06-22T01:03:09;24.39;58.86
65239;SHT30;51827;51.186;6.926;2023-06-22T01:04:09;24.39;58.86
65239;SHT30;51827;51.186;6.926;2023-06-22T01:05:09;24.37;58.86
65239;SHT30;51827;51.186;6.926;2023-06-22T01:06:15;24.41;58.90
65239;SHT30;51827;51.186;6.926;2023-06-22T01:11:08;24.37;58.87
65239;SHT30;51827;51.186;6.926;2023-06-22T01:12:09;24.37;58.86
65239;SHT30;51827;51.186;6.926;2023-06-22T01:14:38;24.38;58.85
65239;SHT30;51827;51.186;6.926;2023-06-22T01:16:03;24.38;58.89
65239;SHT30;51827;51.186;6.926;2023-06-22T01:17:05;24.34;58.88
65239;SHT30;51827;51.186;6.926;2023-06-22T01:18:08;24.37;58.92
65239;SHT30;51827;51.186;6.926;2023-06-22T01:19:39;24.37;58.88
65239;SHT30;51827;51.186;6.926;2023-06-22T01:20:43;24.38;58.90
65239;SHT30;51827;51.186;6.926;2023-06-22T01:21:45;24.37;58.86
65239;SHT30;51827;51.186;6.926;2023-06-22T01:24:18;24.37;58.88
65239;SHT30;51827;51.186;6.926;2023-06-22T01:25:31;24.37;58.87
65239;SHT30;51827;51.186;6.926;2023-06-22T01:28:23;24.35;58.90
65239;SHT30;51827;51.186;6.926;2023-06-22T01:29:25;24.38;58.87
65239;SHT30;51827;51.186;6.926;2023-06-22T01:30:28;24.35;58.88
65239;SHT30;51827;51.186;6.926;2023-06-22T01:31:31;24.35;58.88
65239;SHT30;51827;51.186;6.926;2023-06-22T01:32:34;24.37;58.92
65239;SHT30;51827;51.186;6.926;2023-06-22T01:33:39;24.37;58.93
65239;SHT30;51827;51.186;6.926;2023-06-22T01:34:41;24.35;58.89
65239;SHT30;51827;51.186;6.926;2023-06-22T01:35:42;24.37;58.90
65239;SHT30;51827;51.186;6.926;2023-06-22T01:36:43;24.32;58.91
65239;SHT30;51827;51.186;6.926;2023-06-22T01:37:44;24.37;58.89
65239;SHT30;51827;51.186;6.926;2023-06-22T01:38:45;24.35;58.93
65239;SHT30;51827;51.186;6.926;2023-06-22T01:39:47;24.37;58.91
65239;SHT30;51827;51.186;6.926;2023-06-22T01:40:48;24.35;58.88
65239;SHT30;51827;51.186;6.926;2023-06-22T01:41:50;24.35;58.85
65239;SHT30;51827;51.186;6.926;2023-06-22T01:42:50;24.34;58.89
65239;SHT30;51827;51.186;6.926;2023-06-22T01:43:52;24.35;58.88
65239;SHT30;51827;51.186;6.926;2023-06-22T01:44:53;24.35;58.92
65239;SHT30;51827;51.186;6.926;2023-06-22T01:45:55;24.35;58.85
65239;SHT30;51827;51.186;6.926;2023-06-22T01:46:56;24.35;58.85
65239;SHT30;51827;51.186;6.926;2023-06-22T01:47:57;24.34;58.85
65239;SHT30;51827;51.186;6.926;2023-06-22T01:48:57;24.37;58.85
65239;SHT30;51827;51.186;6.926;2023-06-22T01:49:58;24.32;58.85
65239;SHT30;51827;51.186;6.926;2023-06-22T01:50:58;24.37;58.86
65239;SHT30;51827;51.186;6.926;2023-06-22T01:51:59;24.35;58.90
65239;SHT30;51827;51.186;6.926;2023-06-22T01:52:59;24.34;58.88
65239;SHT30;51827;51.186;6.926;2023-06-22T01:53:59;24.34;58.85
65239;SHT30;51827;51.186;6.926;2023-06-22T01:55:01;24.35;58.84
65239;SHT30;51827;51.186;6.926;2023-06-22T01:56:01;24.35;58.85
65239;SHT30;51827;51.186;6.926;2023-06-22T01:57:01;24.32;58.85
65239;SHT30;51827;51.186;6.926;2023-06-22T01:58:02;24.34;58.84
65239;SHT30;51827;51.186;6.926;2023-06-22T01:59:28;24.34;58.84
65239;SHT30;51827;51.186;6.926;2023-06-22T02:00:33;24.35;58.83
65239;SHT30;51827;51.186;6.926;2023-06-22T02:01:43;24.35;58.83
65239;SHT30;51827;51.186;6.926;2023-06-22T02:02:52;24.34;58.83
65239;SHT30;51827;51.186;6.926;2023-06-22T02:04:03;24.32;58.85
65239;SHT30;51827;51.186;6.926;2023-06-22T02:05:09;24.35;58.84
65239;SHT30;51827;51.186;6.926;2023-06-22T02:06:20;24.32;58.81
65239;SHT30;51827;51.186;6.926;2023-06-22T02:07:23;24.34;58.81
65239;SHT30;51827;51.186;6.926;2023-06-22T02:08:30;24.32;58.81
65239;SHT30;51827;51.186;6.926;2023-06-22T02:09:32;24.35;58.76
65239;SHT30;51827;51.186;6.926;2023-06-22T02:10:35;24.34;58.75
65239;SHT30;51827;51.186;6.926;2023-06-22T02:11:37;24.34;58.80
65239;SHT30;51827;51.186;6.926;2023-06-22T02:12:38;24.34;58.77
65239;SHT30;51827;51.186;6.926;2023-06-22T02:13:39;24.31;58.81
65239;SHT30;51827;51.186;6.926;2023-06-22T02:14:40;24.32;58.80
65239;SHT30;51827;51.186;6.926;2023-06-22T02:15:40;24.32;58.78
65239;SHT30;51827;51.186;6.926;2023-06-22T02:16:41;24.34;58.78
65239;SHT30;51827;51.186;6.926;2023-06-22T02:17:42;24.32;58.78
65239;SHT30;51827;51.186;6.926;2023-06-22T02:18:47;24.32;58.82
65239;SHT30;51827;51.186;6.926;2023-06-22T02:19:47;24.34;58.80
65239;SHT30;51827;51.186;6.926;2023-06-22T02:20:47;24.34;58.80
65239;SHT30;51827;51.186;6.926;2023-06-22T02:21:47;24.31;58.77
65239;SHT30;51827;51.186;6.926;2023-06-22T02:22:48;24.31;58.77
65239;SHT30;51827;51.186;6.926;2023-06-22T02:23:48;24.32;58.76
65239;SHT30;51827;51.186;6.926;2023-06-22T02:24:48;24.34;58.76
65239;SHT30;51827;51.186;6.926;2023-06-22T02:25:48;24.34;58.79
65239;SHT30;51827;51.186;6.926;2023-06-22T02:26:49;24.35;58.78
65239;SHT30;51827;51.186;6.926;2023-06-22T02:27:49;24.34;58.74
65239;SHT30;51827;51.186;6.926;2023-06-22T02:28:49;24.32;58.78
65239;SHT30;51827;51.186;6.926;2023-06-22T02:29:50;24.32;58.77
65239;SHT30;51827;51.186;6.926;2023-06-22T02:30:50;24.31;58.77
65239;SHT30;51827;51.186;6.926;2023-06-22T02:31:50;24.29;58.78
65239;SHT30;51827;51.186;6.926;2023-06-22T02:32:51;24.34;58.79
65239;SHT30;51827;51.186;6.926;2023-06-22T02:33:51;24.34;58.78
65239;SHT30;51827;51.186;6.926;2023-06-22T02:34:52;24.28;58.77
65239;SHT30;51827;51.186;6.926;2023-06-22T02:35:52;24.31;58.77
65239;SHT30;51827;51.186;6.926;2023-06-22T02:36:53;24.32;58.76
65239;SHT30;51827;51.186;6.926;2023-06-22T02:37:53;24.32;58.72
65239;SHT30;51827;51.186;6.926;2023-06-22T02:38:54;24.29;58.71
65239;SHT30;51827;51.186;6.926;2023-06-22T02:39:54;24.32;58.73
65239;SHT30;51827;51.186;6.926;2023-06-22T02:40:55;24.32;58.74
65239;SHT30;51827;51.186;6.926;2023-06-22T02:41:55;24.32;58.75
65239;SHT30;51827;51.186;6.926;2023-06-22T02:42:56;24.31;58.76
65239;SHT30;51827;51.186;6.926;2023-06-22T02:43:56;24.28;58.77
65239;SHT30;51827;51.186;6.926;2023-06-22T02:44:56;24.31;58.77
65239;SHT30;51827;51.186;6.926;2023-06-22T02:45:57;24.31;58.76
65239;SHT30;51827;51.186;6.926;2023-06-22T02:46:57;24.32;58.78
65239;SHT30;51827;51.186;6.926;2023-06-22T02:47:58;24.31;58.75
65239;SHT30;51827;51.186;6.926;2023-06-22T02:48:58;24.31;58.72
65239;SHT30;51827;51.186;6.926;2023-06-22T02:49:58;24.29;58.72
65239;SHT30;51827;51.186;6.926;2023-06-22T02:50:59;24.31;58.72
65239;SHT30;51827;51.186;6.926;2023-06-22T02:51:59;24.31;58.76
65239;SHT30;51827;51.186;6.926;2023-06-22T02:52:59;24.29;58.77
65239;SHT30;51827;51.186;6.926;2023-06-22T02:54:00;24.29;58.73
65239;SHT30;51827;51.186;6.926;2023-06-22T02:55:00;24.31;58.77
65239;SHT30;51827;51.186;6.926;2023-06-22T02:56:04;24.29;58.76
65239;SHT30;51827;51.186;6.926;2023-06-22T02:57:07;24.31;58.77
65239;SHT30;51827;51.186;6.926;2023-06-22T02:58:07;24.31;58.74
65239;SHT30;51827;51.186;6.926;2023-06-22T02:59:08;24.28;58.74
65239;SHT30;51827;51.186;6.926;2023-06-22T03:00:09;24.31;58.77
65239;SHT30;51827;51.186;6.926;2023-06-22T03:01:09;24.32;58.73
65239;SHT30;51827;51.186;6.926;2023-06-22T03:02:09;24.32;58.73
65239;SHT30;51827;51.186;6.926;2023-06-22T03:03:09;24.29;58.74
65239;SHT30;51827;51.186;6.926;2023-06-22T03:04:13;24.31;58.70
65239;SHT30;51827;51.186;6.926;2023-06-22T03:05:14;24.29;58.71
65239;SHT30;51827;51.186;6.926;2023-06-22T03:06:14;24.31;58.70
65239;SHT30;51827;51.186;6.926;2023-06-22T03:07:15;24.32;58.74
65239;SHT30;51827;51.186;6.926;2023-06-22T03:08:15;24.28;58.68
65239;SHT30;51827;51.186;6.926;2023-06-22T03:09:16;24.29;58.70
65239;SHT30;51827;51.186;6.926;2023-06-22T03:10:16;24.31;58.69
65239;SHT30;51827;51.186;6.926;2023-06-22T03:11:17;24.28;58.67
65239;SHT30;51827;51.186;6.926;2023-06-22T03:12:17;24.29;58.71
65239;SHT30;51827;51.186;6.926;2023-06-22T03:13:17;24.28;58.72
65239;SHT30;51827;51.186;6.926;2023-06-22T03:14:17;24.29;58.70
65239;SHT30;51827;51.186;6.926;2023-06-22T03:15:18;24.25;58.68
65239;SHT30;51827;51.186;6.926;2023-06-22T03:16:19;24.29;58.73
65239;SHT30;51827;51.186;6.926;2023-06-22T03:17:19;24.31;58.74
65239;SHT30;51827;51.186;6.926;2023-06-22T03:18:19;24.29;58.75
65239;SHT30;51827;51.186;6.926;2023-06-22T03:19:19;24.29;58.74
65239;SHT30;51827;51.186;6.926;2023-06-22T03:20:19;24.29;58.70
65239;SHT30;51827;51.186;6.926;2023-06-22T03:21:22;24.29;58.70
65239;SHT30;51827;51.186;6.926;2023-06-22T03:22:22;24.29;58.68
65239;SHT30;51827;51.186;6.926;2023-06-22T03:23:22;24.29;58.67
65239;SHT30;51827;51.186;6.926;2023-06-22T03:24:23;24.28;58.68
65239;SHT30;51827;51.186;6.926;2023-06-22T03:25:23;24.27;58.70
65239;SHT30;51827;51.186;6.926;2023-06-22T03:26:23;24.28;58.71
65239;SHT30;51827;51.186;6.926;2023-06-22T03:27:23;24.31;58.73
65239;SHT30;51827;51.186;6.926;2023-06-22T03:28:24;24.29;58.69
65239;SHT30;51827;51.186;6.926;2023-06-22T03:29:24;24.28;58.68
65239;SHT30;51827;51.186;6.926;2023-06-22T03:30:24;24.29;58.67
65239;SHT30;51827;51.186;6.926;2023-06-22T03:31:24;24.29;58.70
65239;SHT30;51827;51.186;6.926;2023-06-22T03:32:25;24.28;58.67
65239;SHT30;51827;51.186;6.926;2023-06-22T03:33:25;24.28;58.71
65239;SHT30;51827;51.186;6.926;2023-06-22T03:34:25;24.28;58.72
65239;SHT30;51827;51.186;6.926;2023-06-22T03:35:26;24.29;58.71
65239;SHT30;51827;51.186;6.926;2023-06-22T03:36:26;24.28;58.66
65239;SHT30;51827;51.186;6.926;2023-06-22T03:37:27;24.31;58.66
65239;SHT30;51827;51.186;6.926;2023-06-22T03:38:27;24.29;58.65
65239;SHT30;51827;51.186;6.926;2023-06-22T03:39:27;24.28;58.65
65239;SHT30;51827;51.186;6.926;2023-06-22T03:40:28;24.29;58.73
65239;SHT30;51827;51.186;6.926;2023-06-22T03:41:28;24.27;58.68
65239;SHT30;51827;51.186;6.926;2023-06-22T03:42:28;24.28;58.64
65239;SHT30;51827;51.186;6.926;2023-06-22T03:43:28;24.28;58.70
65239;SHT30;51827;51.186;6.926;2023-06-22T03:44:29;24.27;58.67
65239;SHT30;51827;51.186;6.926;2023-06-22T03:45:29;24.27;58.67
65239;SHT30;51827;51.186;6.926;2023-06-22T03:46:29;24.29;58.68
65239;SHT30;51827;51.186;6.926;2023-06-22T03:47:29;24.28;58.66
65239;SHT30;51827;51.186;6.926;2023-06-22T03:48:30;24.28;58.66
65239;SHT30;51827;51.186;6.926;2023-06-22T03:49:30;24.29;58.64
65239;SHT30;51827;51.186;6.926;2023-06-22T03:50:30;24.27;58.66
65239;SHT30;51827;51.186;6.926;2023-06-22T03:51:31;24.28;58.69
65239;SHT30;51827;51.186;6.926;2023-06-22T03:52:31;24.28;58.65
65239;SHT30;51827;51.186;6.926;2023-06-22T03:53:32;24.27;58.67
65239;SHT30;51827;51.186;6.926;2023-06-22T03:54:32;24.25;58.66
65239;SHT30;51827;51.186;6.926;2023-06-22T03:55:33;24.27;58.62
65239;SHT30;51827;51.186;6.926;2023-06-22T03:56:34;24.27;58.63
65239;SHT30;51827;51.186;6.926;2023-06-22T03:57:34;24.28;58.66
65239;SHT30;51827;51.186;6.926;2023-06-22T03:58:34;24.27;58.66
65239;SHT30;51827;51.186;6.926;2023-06-22T03:59:34;24.27;58.62
65239;SHT30;51827;51.186;6.926;2023-06-22T04:00:35;24.27;58.63
65239;SHT30;51827;51.186;6.926;2023-06-22T04:01:35;24.27;58.63
65239;SHT30;51827;51.186;6.926;2023-06-22T04:02:35;24.25;58.63
65239;SHT30;51827;51.186;6.926;2023-06-22T04:03:35;24.25;58.66
65239;SHT30;51827;51.186;6.926;2023-06-22T04:04:36;24.25;58.61
65239;SHT30;51827;51.186;6.926;2023-06-22T04:05:36;24.27;58.65
65239;SHT30;51827;51.186;6.926;2023-06-22T04:06:36;24.25;58.61
65239;SHT30;51827;51.186;6.926;2023-06-22T04:07:36;24.27;58.63
65239;SHT30;51827;51.186;6.926;2023-06-22T04:08:39;24.27;58.63
65239;SHT30;51827;51.186;6.926;2023-06-22T04:09:39;24.25;58.61
65239;SHT30;51827;51.186;6.926;2023-06-22T04:10:39;24.27;58.65
65239;SHT30;51827;51.186;6.926;2023-06-22T04:11:40;24.28;58.64
65239;SHT30;51827;51.186;6.926;2023-06-22T04:12:40;24.25;58.61
65239;SHT30;51827;51.186;6.926;2023-06-22T04:13:40;24.27;58.62
65239;SHT30;51827;51.186;6.926;2023-06-22T04:14:40;24.27;58.60
65239;SHT30;51827;51.186;6.926;2023-06-22T04:15:41;24.28;58.59
65239;SHT30;51827;51.186;6.926;2023-06-22T04:16:41;24.25;58.63
65239;SHT30;51827;51.186;6.926;2023-06-22T04:17:41;24.27;58.64
65239;SHT30;51827;51.186;6.926;2023-06-22T04:18:41;24.25;58.58
65239;SHT30;51827;51.186;6.926;2023-06-22T04:19:42;24.28;58.59
65239;SHT30;51827;51.186;6.926;2023-06-22T04:20:42;24.25;58.57
65239;SHT30;51827;51.186;6.926;2023-06-22T04:21:43;24.25;58.61
65239;SHT30;51827;51.186;6.926;2023-06-22T04:22:43;24.27;58.59
65239;SHT30;51827;51.186;6.926;2023-06-22T04:23:44;24.28;58.62
65239;SHT30;51827;51.186;6.926;2023-06-22T04:24:44;24.27;58.60
65239;SHT30;51827;51.186;6.926;2023-06-22T04:25:44;24.25;58.60
65239;SHT30;51827;51.186;6.926;2023-06-22T04:26:45;24.24;58.63
65239;SHT30;51827;51.186;6.926;2023-06-22T04:27:48;24.25;58.62
65239;SHT30;51827;51.186;6.926;2023-06-22T04:28:48;24.24;58.59
65239;SHT30;51827;51.186;6.926;2023-06-22T04:29:48;24.25;58.60
65239;SHT30;51827;51.186;6.926;2023-06-22T04:30:49;24.25;58.61
65239;SHT30;51827;51.186;6.926;2023-06-22T04:31:49;24.24;58.61
65239;SHT30;51827;51.186;6.926;2023-06-22T04:32:49;24.27;58.61
65239;SHT30;51827;51.186;6.926;2023-06-22T04:33:49;24.24;58.59
65239;SHT30;51827;51.186;6.926;2023-06-22T04:34:50;24.25;58.57
65239;SHT30;51827;51.186;6.926;2023-06-22T04:35:50;24.24;58.61
65239;SHT30;51827;51.186;6.926;2023-06-22T04:36:50;24.25;58.57
65239;SHT30;51827;51.186;6.926;2023-06-22T04:37:51;24.24;58.56
65239;SHT30;51827;51.186;6.926;2023-06-22T04:38:51;24.25;58.57
65239;SHT30;51827;51.186;6.926;2023-06-22T04:39:51;24.22;58.60
65239;SHT30;51827;51.186;6.926;2023-06-22T04:40:51;24.24;58.56
65239;SHT30;51827;51.186;6.926;2023-06-22T04:41:52;24.25;58.56
65239;SHT30;51827;51.186;6.926;2023-06-22T04:42:53;24.25;58.56
65239;SHT30;51827;51.186;6.926;2023-06-22T04:43:53;24.24;58.55
65239;SHT30;51827;51.186;6.926;2023-06-22T04:44:53;24.22;58.56
65239;SHT30;51827;51.186;6.926;2023-06-22T04:45:53;24.25;58.55
65239;SHT30;51827;51.186;6.926;2023-06-22T04:46:56;24.25;58.58
65239;SHT30;51827;51.186;6.926;2023-06-22T04:47:57;24.25;58.55
65239;SHT30;51827;51.186;6.926;2023-06-22T04:48:57;24.24;58.55
65239;SHT30;51827;51.186;6.926;2023-06-22T04:49:58;24.24;58.53
65239;SHT30;51827;51.186;6.926;2023-06-22T04:51:01;24.24;58.56
65239;SHT30;51827;51.186;6.926;2023-06-22T04:52:04;24.24;58.54
65239;SHT30;51827;51.186;6.926;2023-06-22T04:53:04;24.25;58.54
65239;SHT30;51827;51.186;6.926;2023-06-22T04:54:05;24.25;58.54
65239;SHT30;51827;51.186;6.926;2023-06-22T04:55:06;24.24;58.56
65239;SHT30;51827;51.186;6.926;2023-06-22T04:56:06;24.21;58.55
65239;SHT30;51827;51.186;6.926;2023-06-22T04:57:07;24.25;58.54
65239;SHT30;51827;51.186;6.926;2023-06-22T04:58:07;24.24;58.54
65239;SHT30;51827;51.186;6.926;2023-06-22T04:59:08;24.25;58.54
65239;SHT30;51827;51.186;6.926;2023-06-22T05:00:08;24.24;58.52
65239;SHT30;51827;51.186;6.926;2023-06-22T05:01:09;24.24;58.53
65239;SHT30;51827;51.186;6.926;2023-06-22T05:02:09;24.27;58.52
65239;SHT30;51827;51.186;6.926;2023-06-22T05:03:09;24.24;58.54
65239;SHT30;51827;51.186;6.926;2023-06-22T05:04:10;24.24;58.52
65239;SHT30;51827;51.186;6.926;2023-06-22T05:05:11;24.24;58.59
65239;SHT30;51827;51.186;6.926;2023-06-22T05:06:11;24.24;58.56
65239;SHT30;51827;51.186;6.926;2023-06-22T05:07:12;24.25;58.58
65239;SHT30;51827;51.186;6.926;2023-06-22T05:08:13;24.22;58.59
65239;SHT30;51827;51.186;6.926;2023-06-22T05:09:13;24.24;58.60
65239;SHT30;51827;51.186;6.926;2023-06-22T05:10:14;24.25;58.58
65239;SHT30;51827;51.186;6.926;2023-06-22T05:11:14;24.22;58.56
65239;SHT30;51827;51.186;6.926;2023-06-22T05:12:14;24.21;58.52
65239;SHT30;51827;51.186;6.926;2023-06-22T05:13:14;24.22;58.54
65239;SHT30;51827;51.186;6.926;2023-06-22T05:14:15;24.25;58.50
65239;SHT30;51827;51.186;6.926;2023-06-22T05:15:15;24.25;58.52
65239;SHT30;51827;51.186;6.926;2023-06-22T05:16:15;24.24;58.52
65239;SHT30;51827;51.186;6.926;2023-06-22T05:17:16;24.24;58.52
65239;SHT30;51827;51.186;6.926;2023-06-22T05:18:16;24.24;58.53
65239;SHT30;51827;51.186;6.926;2023-06-22T05:19:16;24.25;58.55
65239;SHT30;51827;51.186;6.926;2023-06-22T05:20:16;24.24;58.50
65239;SHT30;51827;51.186;6.926;2023-06-22T05:21:17;24.24;58.45
65239;SHT30;51827;51.186;6.926;2023-06-22T05:22:17;24.25;58.48
65239;SHT30;51827;51.186;6.926;2023-06-22T05:23:17;24.25;58.48
65239;SHT30;51827;51.186;6.926;2023-06-22T05:24:18;24.21;58.47
65239;SHT30;51827;51.186;6.926;2023-06-22T05:25:18;24.24;58.49
65239;SHT30;51827;51.186;6.926;2023-06-22T05:26:19;24.22;58.48
65239;SHT30;51827;51.186;6.926;2023-06-22T05:27:20;24.22;58.54
65239;SHT30;51827;51.186;6.926;2023-06-22T05:28:20;24.24;58.46
65239;SHT30;51827;51.186;6.926;2023-06-22T05:29:20;24.24;58.47
65239;SHT30;51827;51.186;6.926;2023-06-22T05:30:20;24.22;58.46
65239;SHT30;51827;51.186;6.926;2023-06-22T05:31:21;24.24;58.48
65239;SHT30;51827;51.186;6.926;2023-06-22T05:32:21;24.25;58.47
65239;SHT30;51827;51.186;6.926;2023-06-22T05:33:21;24.25;58.51
65239;SHT30;51827;51.186;6.926;2023-06-22T05:34:22;24.21;58.51
65239;SHT30;51827;51.186;6.926;2023-06-22T05:35:22;24.24;58.57
65239;SHT30;51827;51.186;6.926;2023-06-22T05:36:22;24.25;58.56
65239;SHT30;51827;51.186;6.926;2023-06-22T05:37:22;24.24;58.59
65239;SHT30;51827;51.186;6.926;2023-06-22T05:38:23;24.22;58.60
65239;SHT30;51827;51.186;6.926;2023-06-22T05:39:23;24.27;58.57
65239;SHT30;51827;51.186;6.926;2023-06-22T05:40:23;24.22;58.61
65239;SHT30;51827;51.186;6.926;2023-06-22T05:41:23;24.24;58.59
65239;SHT30;51827;51.186;6.926;2023-06-22T05:42:24;24.24;58.54
65239;SHT30;51827;51.186;6.926;2023-06-22T05:43:24;24.24;58.55
65239;SHT30;51827;51.186;6.926;2023-06-22T05:44:24;24.24;58.51
65239;SHT30;51827;51.186;6.926;2023-06-22T05:45:27;24.24;58.56
65239;SHT30;51827;51.186;6.926;2023-06-22T05:46:27;24.22;58.48
65239;SHT30;51827;51.186;6.926;2023-06-22T05:47:27;24.22;58.49
65239;SHT30;51827;51.186;6.926;2023-06-22T05:48:27;24.21;58.52
65239;SHT30;51827;51.186;6.926;2023-06-22T05:49:28;24.24;58.45
65239;SHT30;51827;51.186;6.926;2023-06-22T05:50:28;24.24;58.50
65239;SHT30;51827;51.186;6.926;2023-06-22T05:51:28;24.24;58.44
65239;SHT30;51827;51.186;6.926;2023-06-22T05:52:28;24.24;58.45
65239;SHT30;51827;51.186;6.926;2023-06-22T05:53:29;24.24;58.45
65239;SHT30;51827;51.186;6.926;2023-06-22T05:54:29;24.24;58.42
65239;SHT30;51827;51.186;6.926;2023-06-22T05:55:30;24.21;58.44
65239;SHT30;51827;51.186;6.926;2023-06-22T05:56:30;24.21;58.43
65239;SHT30;51827;51.186;6.926;2023-06-22T05:57:30;24.22;58.46
65239;SHT30;51827;51.186;6.926;2023-06-22T05:58:30;24.22;58.50
65239;SHT30;51827;51.186;6.926;2023-06-22T05:59:31;24.22;58.49
65239;SHT30;51827;51.186;6.926;2023-06-22T06:00:31;24.22;58.48
65239;SHT30;51827;51.186;6.926;2023-06-22T06:01:31;24.22;58.45
65239;SHT30;51827;51.186;6.926;2023-06-22T06:02:32;24.21;58.49
65239;SHT30;51827;51.186;6.926;2023-06-22T06:03:32;24.22;58.45
65239;SHT30;51827;51.186;6.926;2023-06-22T06:04:32;24.24;58.45
65239;SHT30;51827;51.186;6.926;2023-06-22T06:05:33;24.21;58.45
65239;SHT30;51827;51.186;6.926;2023-06-22T06:06:34;24.22;58.44
65239;SHT30;51827;51.186;6.926;2023-06-22T06:07:34;24.22;58.51
65239;SHT30;51827;51.186;6.926;2023-06-22T06:08:35;24.20;58.50
65239;SHT30;51827;51.186;6.926;2023-06-22T06:09:35;24.21;58.48
65239;SHT30;51827;51.186;6.926;2023-06-22T06:10:35;24.24;58.50
65239;SHT30;51827;51.186;6.926;2023-06-22T06:11:35;24.21;58.50
65239;SHT30;51827;51.186;6.926;2023-06-22T06:12:36;24.24;58.50
65239;SHT30;51827;51.186;6.926;2023-06-22T06:13:36;24.25;58.49
65239;SHT30;51827;51.186;6.926;2023-06-22T06:14:36;24.24;58.49
65239;SHT30;51827;51.186;6.926;2023-06-22T06:15:37;24.25;58.47
65239;SHT30;51827;51.186;6.926;2023-06-22T06:16:37;24.24;58.46
65239;SHT30;51827;51.186;6.926;2023-06-22T06:17:51;24.22;58.39
65239;SHT30;51827;51.186;6.926;2023-06-22T06:18:52;24.21;58.40
65239;SHT30;51827;51.186;6.926;2023-06-22T06:19:52;24.22;58.45
65239;SHT30;51827;51.186;6.926;2023-06-22T06:20:52;24.22;58.47
65239;SHT30;51827;51.186;6.926;2023-06-22T06:21:53;24.22;58.48
65239;SHT30;51827;51.186;6.926;2023-06-22T06:22:53;24.22;58.49
65239;SHT30;51827;51.186;6.926;2023-06-22T06:23:53;24.22;58.49
65239;SHT30;51827;51.186;6.926;2023-06-22T06:24:53;24.21;58.50
65239;SHT30;51827;51.186;6.926;2023-06-22T06:25:54;24.22;58.45
65239;SHT30;51827;51.186;6.926;2023-06-22T06:26:54;24.22;58.45
65239;SHT30;51827;51.186;6.926;2023-06-22T06:27:54;24.20;58.43
65239;SHT30;51827;51.186;6.926;2023-06-22T06:28:56;24.22;58.43
65239;SHT30;51827;51.186;6.926;2023-06-22T06:29:56;24.25;58.42
65239;SHT30;51827;51.186;6.926;2023-06-22T06:30:57;24.21;58.46
65239;SHT30;51827;51.186;6.926;2023-06-22T06:31:57;24.21;58.48
65239;SHT30;51827;51.186;6.926;2023-06-22T06:32:57;24.21;58.42
65239;SHT30;51827;51.186;6.926;2023-06-22T06:33:57;24.21;58.46